sensor_id;sensor_type;location;lat;lon;timestamp;P1;durP1;ratioP1;P2;durP2;ratioP2
71048;SDS011;58704;53.358;-6.238;2023-10-09T00:01:05;7.25;;;5.05;;
71048;SDS011;58704;53.358;-6.238;2023-10-09T00:03:47;9.15;;;4.45;;
71048;SDS011;58704;53.358;-6.238;2023-10-09T00:06:19;9.10;;;4.85;;
71048;SDS011;58704;53.358;-6.238;2023-10-09T00:09:11;8.80;;;4.87;;
71048;SDS011;58704;53.358;-6.238;2023-10-09T00:11:55;8.68;;;5.38;;
71048;SDS011;58704;53.358;-6.238;2023-10-09T00:14:25;7.18;;;4.90;;
71048;SDS011;58704;53.358;-6.238;2023-10-09T00:16:52;10.50;;;4.85;;
71048;SDS011;58704;53.358;-6.238;2023-10-09T00:19:46;8.15;;;5.30;;
71048;SDS011;58704;53.358;-6.238;2023-10-09T00:22:16;9.40;;;4.97;;
71048;SDS011;58704;53.358;-6.238;2023-10-09T00:24:55;11.10;;;5.10;;
71048;SDS011;58704;53.358;-6.238;2023-10-09T00:27:40;7.30;;;4.75;;
71048;SDS011;58704;53.358;-6.238;2023-10-09T00:30:14;7.97;;;4.82;;
71048;SDS011;58704;53.358;-6.238;2023-10-09T00:32:45;8.25;;;4.78;;
71048;SDS011;58704;53.358;-6.238;2023-10-09T00:35:37;6.47;;;4.77;;
71048;SDS011;58704;53.358;-6.238;2023-10-09T00:38:19;9.85;;;4.70;;
71048;SDS011;58704;53.358;-6.238;2023-10-09T00:40:47;10.20;;;5.30;;
71048;SDS011;58704;53.358;-6.238;2023-10-09T00:43:21;8.82;;;4.47;;
71048;SDS011;58704;53.358;-6.238;2023-10-09T00:45:53;8.57;;;4.65;;
71048;SDS011;58704;53.358;-6.238;2023-10-09T00:48:19;8.83;;;5.03;;
71048;SDS011;58704;53.358;-6.238;2023-10-09T00:50:56;7.90;;;5.07;;
71048;SDS011;58704;53.358;-6.238;2023-10-09T00:53:25;8.48;;;5.20;;
71048;SDS011;58704;53.358;-6.238;2023-10-09T00:55:58;9.23;;;4.83;;
71048;SDS011;58704;53.358;-6.238;2023-10-09T00:58:54;7.00;;;5.00;;
71048;SDS011;58704;53.358;-6.238;2023-10-09T01:01:24;8.10;;;4.40;;
71048;SDS011;58704;53.358;-6.238;2023-10-09T01:03:54;8.32;;;4.80;;
71048;SDS011;58704;53.358;-6.238;2023-10-09T01:06:19;11.00;;;4.97;;
71048;SDS011;58704;53.358;-6.238;2023-10-09T01:08:52;8.55;;;5.57;;
71048;SDS011;58704;53.358;-6.238;2023-10-09T01:11:36;8.73;;;4.55;;
71048;SDS011;58704;53.358;-6.238;2023-10-09T01:14:12;8.30;;;5.00;;
71048;SDS011;58704;53.358;-6.238;2023-10-09T01:16:38;11.77;;;5.38;;
71048;SDS011;58704;53.358;-6.238;2023-10-09T01:19:06;7.70;;;4.68;;
71048;SDS011;58704;53.358;-6.238;2023-10-09T01:21:44;10.50;;;4.53;;
71048;SDS011;58704;53.358;-6.238;2023-10-09T01:24:10;6.75;;;4.45;;
71048;SDS011;58704;53.358;-6.238;2023-10-09T01:26:39;8.23;;;5.43;;
71048;SDS011;58704;53.358;-6.238;2023-10-09T01:29:09;6.78;;;4.70;;
71048;SDS011;58704;53.358;-6.238;2023-10-09T01:31:41;9.13;;;4.80;;
71048;SDS011;58704;53.358;-6.238;2023-10-09T01:34:17;11.25;;;4.93;;
71048;SDS011;58704;53.358;-6.238;2023-10-09T01:36:44;12.55;;;5.22;;
71048;SDS011;58704;53.358;-6.238;2023-10-09T01:39:13;7.50;;;4.50;;
71048;SDS011;58704;53.358;-6.238;2023-10-09T01:42:11;8.80;;;4.90;;
71048;SDS011;58704;53.358;-6.238;2023-10-09T01:44:48;12.93;;;4.90;;
71048;SDS011;58704;53.358;-6.238;2023-10-09T01:47:13;7.93;;;4.40;;
71048;SDS011;58704;53.358;-6.238;2023-10-09T01:49:42;10.67;;;5.20;;
71048;SDS011;58704;53.358;-6.238;2023-10-09T01:52:08;8.50;;;4.68;;
71048;SDS011;58704;53.358;-6.238;2023-10-09T01:54:35;8.30;;;4.57;;
71048;SDS011;58704;53.358;-6.238;2023-10-09T01:57:04;9.43;;;4.70;;
71048;SDS011;58704;53.358;-6.238;2023-10-09T01:59:38;7.80;;;4.43;;
71048;SDS011;58704;53.358;-6.238;2023-10-09T02:02:11;6.70;;;4.30;;
71048;SDS011;58704;53.358;-6.238;2023-10-09T02:04:57;10.10;;;4.40;;
71048;SDS011;58704;53.358;-6.238;2023-10-09T02:07:50;8.73;;;4.88;;
71048;SDS011;58704;53.358;-6.238;2023-10-09T02:10:19;9.67;;;5.03;;
71048;SDS011;58704;53.358;-6.238;2023-10-09T02:15:27;8.02;;;4.05;;
71048;SDS011;58704;53.358;-6.238;2023-10-09T02:18:11;7.68;;;4.60;;
71048;SDS011;58704;53.358;-6.238;2023-10-09T02:20:47;7.03;;;4.18;;
71048;SDS011;58704;53.358;-6.238;2023-10-09T02:23:29;12.17;;;4.70;;
71048;SDS011;58704;53.358;-6.238;2023-10-09T02:26:15;8.90;;;5.13;;
71048;SDS011;58704;53.358;-6.238;2023-10-09T02:28:57;9.35;;;4.85;;
71048;SDS011;58704;53.358;-6.238;2023-10-09T02:31:29;7.10;;;3.95;;
71048;SDS011;58704;53.358;-6.238;2023-10-09T02:34:05;9.18;;;4.35;;
71048;SDS011;58704;53.358;-6.238;2023-10-09T02:36:37;10.27;;;5.17;;
71048;SDS011;58704;53.358;-6.238;2023-10-09T02:39:13;9.38;;;4.50;;
71048;SDS011;58704;53.358;-6.238;2023-10-09T02:41:57;9.30;;;4.32;;
71048;SDS011;58704;53.358;-6.238;2023-10-09T02:44:38;8.27;;;4.53;;
71048;SDS011;58704;53.358;-6.238;2023-10-09T02:47:13;7.85;;;4.57;;
71048;SDS011;58704;53.358;-6.238;2023-10-09T02:49:49;9.77;;;4.60;;
71048;SDS011;58704;53.358;-6.238;2023-10-09T02:52:15;8.48;;;4.55;;
71048;SDS011;58704;53.358;-6.238;2023-10-09T02:55:03;8.70;;;5.18;;
71048;SDS011;58704;53.358;-6.238;2023-10-09T02:57:33;12.60;;;4.78;;
71048;SDS011;58704;53.358;-6.238;2023-10-09T03:00:05;9.50;;;5.07;;
71048;SDS011;58704;53.358;-6.238;2023-10-09T03:02:34;10.47;;;4.70;;
71048;SDS011;58704;53.358;-6.238;2023-10-09T03:05:04;7.93;;;4.30;;
71048;SDS011;58704;53.358;-6.238;2023-10-09T03:07:31;9.57;;;5.00;;
71048;SDS011;58704;53.358;-6.238;2023-10-09T03:09:56;10.63;;;5.50;;
71048;SDS011;58704;53.358;-6.238;2023-10-09T03:12:22;8.60;;;4.40;;
71048;SDS011;58704;53.358;-6.238;2023-10-09T03:14:51;8.38;;;4.80;;
71048;SDS011;58704;53.358;-6.238;2023-10-09T03:17:17;8.80;;;4.67;;
71048;SDS011;58704;53.358;-6.238;2023-10-09T03:19:43;6.80;;;4.72;;
71048;SDS011;58704;53.358;-6.238;2023-10-09T03:22:08;8.60;;;4.37;;
71048;SDS011;58704;53.358;-6.238;2023-10-09T03:24:35;9.30;;;4.63;;
71048;SDS011;58704;53.358;-6.238;2023-10-09T03:27:01;9.85;;;4.93;;
71048;SDS011;58704;53.358;-6.238;2023-10-09T03:29:27;7.50;;;4.70;;
71048;SDS011;58704;53.358;-6.238;2023-10-09T03:31:53;7.67;;;4.53;;
71048;SDS011;58704;53.358;-6.238;2023-10-09T03:34:20;8.15;;;4.78;;
71048;SDS011;58704;53.358;-6.238;2023-10-09T03:36:46;8.80;;;4.87;;
71048;SDS011;58704;53.358;-6.238;2023-10-09T03:39:12;9.45;;;5.25;;
71048;SDS011;58704;53.358;-6.238;2023-10-09T03:42:04;10.88;;;4.85;;
71048;SDS011;58704;53.358;-6.238;2023-10-09T03:44:31;8.57;;;4.53;;
71048;SDS011;58704;53.358;-6.238;2023-10-09T03:46:59;7.73;;;4.80;;
71048;SDS011;58704;53.358;-6.238;2023-10-09T03:49:24;7.57;;;4.50;;
71048;SDS011;58704;53.358;-6.238;2023-10-09T03:51:51;7.00;;;4.53;;
71048;SDS011;58704;53.358;-6.238;2023-10-09T03:54:16;8.77;;;5.05;;
71048;SDS011;58704;53.358;-6.238;2023-10-09T03:56:48;9.65;;;4.82;;
71048;SDS011;58704;53.358;-6.238;2023-10-09T03:59:20;7.25;;;4.90;;
71048;SDS011;58704;53.358;-6.238;2023-10-09T04:01:46;8.20;;;4.75;;
71048;SDS011;58704;53.358;-6.238;2023-10-09T04:04:18;7.80;;;4.87;;
71048;SDS011;58704;53.358;-6.238;2023-10-09T04:06:47;9.27;;;4.65;;
71048;SDS011;58704;53.358;-6.238;2023-10-09T04:09:13;12.02;;;4.65;;
71048;SDS011;58704;53.358;-6.238;2023-10-09T04:11:59;9.77;;;5.00;;
71048;SDS011;58704;53.358;-6.238;2023-10-09T04:14:36;9.88;;;5.10;;
71048;SDS011;58704;53.358;-6.238;2023-10-09T04:17:12;8.45;;;4.80;;
71048;SDS011;58704;53.358;-6.238;2023-10-09T04:19:49;7.93;;;5.00;;
71048;SDS011;58704;53.358;-6.238;2023-10-09T04:22:38;7.82;;;4.82;;
71048;SDS011;58704;53.358;-6.238;2023-10-09T04:25:07;6.77;;;4.50;;
71048;SDS011;58704;53.358;-6.238;2023-10-09T04:27:39;7.60;;;4.60;;
71048;SDS011;58704;53.358;-6.238;2023-10-09T04:30:05;8.80;;;4.90;;
71048;SDS011;58704;53.358;-6.238;2023-10-09T04:32:32;9.57;;;5.40;;
71048;SDS011;58704;53.358;-6.238;2023-10-09T04:34:59;6.57;;;4.53;;
71048;SDS011;58704;53.358;-6.238;2023-10-09T04:37:44;11.73;;;5.18;;
71048;SDS011;58704;53.358;-6.238;2023-10-09T04:40:17;6.88;;;4.55;;
71048;SDS011;58704;53.358;-6.238;2023-10-09T04:43:01;8.60;;;4.95;;
71048;SDS011;58704;53.358;-6.238;2023-10-09T04:45:31;12.52;;;5.10;;
71048;SDS011;58704;53.358;-6.238;2023-10-09T04:48:09;8.80;;;5.30;;
71048;SDS011;58704;53.358;-6.238;2023-10-09T04:50:36;10.63;;;5.35;;
71048;SDS011;58704;53.358;-6.238;2023-10-09T04:53:10;10.18;;;5.22;;
71048;SDS011;58704;53.358;-6.238;2023-10-09T04:55:41;8.98;;;5.15;;
71048;SDS011;58704;53.358;-6.238;2023-10-09T04:58:21;9.25;;;4.97;;
71048;SDS011;58704;53.358;-6.238;2023-10-09T05:00:57;10.27;;;5.13;;
71048;SDS011;58704;53.358;-6.238;2023-10-09T05:03:22;6.97;;;5.00;;
71048;SDS011;58704;53.358;-6.238;2023-10-09T05:06:08;9.30;;;5.50;;
71048;SDS011;58704;53.358;-6.238;2023-10-09T05:08:49;9.67;;;5.17;;
71048;SDS011;58704;53.358;-6.238;2023-10-09T05:11:21;9.00;;;5.18;;
71048;SDS011;58704;53.358;-6.238;2023-10-09T05:14:05;11.25;;;5.47;;
71048;SDS011;58704;53.358;-6.238;2023-10-09T05:16:37;10.75;;;5.43;;
71048;SDS011;58704;53.358;-6.238;2023-10-09T05:19:09;8.88;;;5.43;;
71048;SDS011;58704;53.358;-6.238;2023-10-09T05:21:54;10.60;;;6.13;;
71048;SDS011;58704;53.358;-6.238;2023-10-09T05:24:23;9.93;;;6.20;;
71048;SDS011;58704;53.358;-6.238;2023-10-09T05:26:51;10.82;;;6.35;;
71048;SDS011;58704;53.358;-6.238;2023-10-09T05:32:02;9.40;;;6.07;;
71048;SDS011;58704;53.358;-6.238;2023-10-09T05:34:38;10.30;;;5.93;;
71048;SDS011;58704;53.358;-6.238;2023-10-09T05:37:23;10.18;;;5.95;;
71048;SDS011;58704;53.358;-6.238;2023-10-09T05:40:05;9.80;;;5.35;;
71048;SDS011;58704;53.358;-6.238;2023-10-09T05:42:44;10.07;;;6.15;;
71048;SDS011;58704;53.358;-6.238;2023-10-09T05:47:42;9.00;;;5.80;;
71048;SDS011;58704;53.358;-6.238;2023-10-09T05:50:49;10.48;;;6.13;;
71048;SDS011;58704;53.358;-6.238;2023-10-09T05:53:33;9.02;;;6.00;;
71048;SDS011;58704;53.358;-6.238;2023-10-09T05:56:10;10.48;;;6.82;;
71048;SDS011;58704;53.358;-6.238;2023-10-09T05:58:54;8.17;;;5.40;;
71048;SDS011;58704;53.358;-6.238;2023-10-09T06:01:38;9.38;;;5.22;;
71048;SDS011;58704;53.358;-6.238;2023-10-09T06:04:22;12.52;;;6.93;;
71048;SDS011;58704;53.358;-6.238;2023-10-09T06:06:59;9.40;;;5.80;;
71048;SDS011;58704;53.358;-6.238;2023-10-09T06:09:37;8.50;;;5.90;;
71048;SDS011;58704;53.358;-6.238;2023-10-09T06:12:15;11.27;;;6.47;;
71048;SDS011;58704;53.358;-6.238;2023-10-09T06:14:59;9.27;;;6.05;;
71048;SDS011;58704;53.358;-6.238;2023-10-09T06:17:43;10.55;;;6.05;;
71048;SDS011;58704;53.358;-6.238;2023-10-09T06:20:15;8.13;;;5.13;;
71048;SDS011;58704;53.358;-6.238;2023-10-09T06:23:02;9.15;;;6.40;;
71048;SDS011;58704;53.358;-6.238;2023-10-09T06:25:42;9.47;;;6.20;;
71048;SDS011;58704;53.358;-6.238;2023-10-09T06:28:16;10.38;;;5.95;;
71048;SDS011;58704;53.358;-6.238;2023-10-09T06:30:44;9.98;;;6.15;;
71048;SDS011;58704;53.358;-6.238;2023-10-09T06:33:12;9.35;;;5.68;;
71048;SDS011;58704;53.358;-6.238;2023-10-09T06:35:54;11.63;;;6.13;;
71048;SDS011;58704;53.358;-6.238;2023-10-09T06:38:20;8.70;;;6.03;;
71048;SDS011;58704;53.358;-6.238;2023-10-09T06:40:58;11.70;;;7.03;;
71048;SDS011;58704;53.358;-6.238;2023-10-09T06:43:29;11.07;;;6.72;;
71048;SDS011;58704;53.358;-6.238;2023-10-09T06:45:55;12.63;;;6.47;;
71048;SDS011;58704;53.358;-6.238;2023-10-09T06:48:40;9.15;;;6.40;;
71048;SDS011;58704;53.358;-6.238;2023-10-09T06:51:10;9.40;;;5.97;;
71048;SDS011;58704;53.358;-6.238;2023-10-09T06:53:52;8.00;;;5.65;;
71048;SDS011;58704;53.358;-6.238;2023-10-09T06:56:25;8.10;;;6.30;;
71048;SDS011;58704;53.358;-6.238;2023-10-09T06:59:11;9.27;;;6.05;;
71048;SDS011;58704;53.358;-6.238;2023-10-09T07:01:47;11.68;;;5.82;;
71048;SDS011;58704;53.358;-6.238;2023-10-09T07:04:33;12.50;;;7.87;;
71048;SDS011;58704;53.358;-6.238;2023-10-09T07:07:02;11.85;;;7.10;;
71048;SDS011;58704;53.358;-6.238;2023-10-09T07:09:32;10.25;;;6.90;;
71048;SDS011;58704;53.358;-6.238;2023-10-09T07:12:07;9.30;;;6.05;;
71048;SDS011;58704;53.358;-6.238;2023-10-09T07:14:35;10.98;;;6.70;;
71048;SDS011;58704;53.358;-6.238;2023-10-09T07:17:01;10.30;;;6.87;;
71048;SDS011;58704;53.358;-6.238;2023-10-09T07:19:50;11.13;;;7.45;;
71048;SDS011;58704;53.358;-6.238;2023-10-09T07:22:17;9.43;;;6.30;;
71048;SDS011;58704;53.358;-6.238;2023-10-09T07:24:45;14.90;;;7.73;;
71048;SDS011;58704;53.358;-6.238;2023-10-09T07:27:30;9.52;;;6.88;;
71048;SDS011;58704;53.358;-6.238;2023-10-09T07:30:19;10.70;;;6.38;;
71048;SDS011;58704;53.358;-6.238;2023-10-09T07:33:04;8.48;;;5.57;;
71048;SDS011;58704;53.358;-6.238;2023-10-09T07:35:34;9.10;;;6.40;;
71048;SDS011;58704;53.358;-6.238;2023-10-09T07:38:08;10.97;;;5.93;;
71048;SDS011;58704;53.358;-6.238;2023-10-09T07:40:40;10.00;;;6.13;;
71048;SDS011;58704;53.358;-6.238;2023-10-09T07:43:31;9.48;;;6.03;;
71048;SDS011;58704;53.358;-6.238;2023-10-09T07:46:07;8.77;;;5.78;;
71048;SDS011;58704;53.358;-6.238;2023-10-09T07:48:53;12.35;;;6.78;;
71048;SDS011;58704;53.358;-6.238;2023-10-09T07:51:19;8.40;;;6.30;;
71048;SDS011;58704;53.358;-6.238;2023-10-09T07:53:57;8.40;;;5.95;;
71048;SDS011;58704;53.358;-6.238;2023-10-09T07:56:31;12.13;;;6.13;;
71048;SDS011;58704;53.358;-6.238;2023-10-09T07:59:08;8.43;;;6.07;;
71048;SDS011;58704;53.358;-6.238;2023-10-09T08:01:40;9.35;;;6.70;;
71048;SDS011;58704;53.358;-6.238;2023-10-09T08:04:17;9.30;;;5.80;;
71048;SDS011;58704;53.358;-6.238;2023-10-09T08:07:09;7.82;;;6.10;;
71048;SDS011;58704;53.358;-6.238;2023-10-09T08:09:45;8.85;;;6.38;;
71048;SDS011;58704;53.358;-6.238;2023-10-09T08:12:16;9.02;;;6.07;;
71048;SDS011;58704;53.358;-6.238;2023-10-09T08:15:05;8.55;;;6.15;;
71048;SDS011;58704;53.358;-6.238;2023-10-09T08:17:47;9.73;;;6.23;;
71048;SDS011;58704;53.358;-6.238;2023-10-09T08:20:21;9.10;;;5.97;;
71048;SDS011;58704;53.358;-6.238;2023-10-09T08:22:51;9.07;;;5.90;;
71048;SDS011;58704;53.358;-6.238;2023-10-09T08:25:17;12.48;;;6.72;;
71048;SDS011;58704;53.358;-6.238;2023-10-09T08:28:03;10.73;;;6.07;;
71048;SDS011;58704;53.358;-6.238;2023-10-09T08:30:47;12.43;;;6.67;;
71048;SDS011;58704;53.358;-6.238;2023-10-09T08:33:19;13.57;;;7.13;;
71048;SDS011;58704;53.358;-6.238;2023-10-09T08:35:50;14.57;;;7.53;;
71048;SDS011;58704;53.358;-6.238;2023-10-09T08:38:20;20.73;;;7.70;;
71048;SDS011;58704;53.358;-6.238;2023-10-09T08:40:48;15.50;;;7.35;;
71048;SDS011;58704;53.358;-6.238;2023-10-09T08:43:19;18.93;;;7.93;;
71048;SDS011;58704;53.358;-6.238;2023-10-09T08:45:49;13.98;;;7.63;;
71048;SDS011;58704;53.358;-6.238;2023-10-09T08:48:17;17.00;;;7.82;;
71048;SDS011;58704;53.358;-6.238;2023-10-09T08:50:46;13.50;;;8.32;;
71048;SDS011;58704;53.358;-6.238;2023-10-09T08:53:13;13.32;;;9.13;;
71048;SDS011;58704;53.358;-6.238;2023-10-09T08:55:39;16.60;;;11.43;;
71048;SDS011;58704;53.358;-6.238;2023-10-09T08:58:06;16.88;;;11.60;;
71048;SDS011;58704;53.358;-6.238;2023-10-09T09:00:45;16.02;;;10.30;;
71048;SDS011;58704;53.358;-6.238;2023-10-09T09:03:12;16.52;;;10.20;;
71048;SDS011;58704;53.358;-6.238;2023-10-09T09:05:45;15.07;;;9.18;;
71048;SDS011;58704;53.358;-6.238;2023-10-09T09:08:22;17.60;;;10.20;;
71048;SDS011;58704;53.358;-6.238;2023-10-09T09:10:56;14.95;;;10.38;;
71048;SDS011;58704;53.358;-6.238;2023-10-09T09:16:17;10.65;;;8.27;;
71048;SDS011;58704;53.358;-6.238;2023-10-09T09:19:00;12.07;;;8.82;;
71048;SDS011;58704;53.358;-6.238;2023-10-09T09:21:48;11.83;;;8.23;;
71048;SDS011;58704;53.358;-6.238;2023-10-09T09:24:19;13.82;;;8.90;;
71048;SDS011;58704;53.358;-6.238;2023-10-09T09:26:48;14.60;;;9.98;;
71048;SDS011;58704;53.358;-6.238;2023-10-09T09:32:01;17.02;;;10.25;;
71048;SDS011;58704;53.358;-6.238;2023-10-09T09:34:58;13.73;;;9.50;;
71048;SDS011;58704;53.358;-6.238;2023-10-09T09:37:29;15.82;;;9.68;;
71048;SDS011;58704;53.358;-6.238;2023-10-09T09:40:02;12.77;;;9.15;;
71048;SDS011;58704;53.358;-6.238;2023-10-09T09:42:39;13.40;;;8.88;;
71048;SDS011;58704;53.358;-6.238;2023-10-09T09:45:10;11.77;;;8.50;;
71048;SDS011;58704;53.358;-6.238;2023-10-09T09:47:36;11.97;;;8.63;;
71048;SDS011;58704;53.358;-6.238;2023-10-09T09:50:04;12.93;;;8.88;;
71048;SDS011;58704;53.358;-6.238;2023-10-09T09:52:37;9.88;;;7.63;;
71048;SDS011;58704;53.358;-6.238;2023-10-09T09:55:07;9.27;;;8.07;;
71048;SDS011;58704;53.358;-6.238;2023-10-09T09:57:44;10.57;;;7.20;;
71048;SDS011;58704;53.358;-6.238;2023-10-09T10:00:10;7.68;;;6.55;;
71048;SDS011;58704;53.358;-6.238;2023-10-09T10:02:54;8.63;;;6.82;;
71048;SDS011;58704;53.358;-6.238;2023-10-09T10:05:23;9.05;;;7.65;;
71048;SDS011;58704;53.358;-6.238;2023-10-09T10:07:52;8.93;;;7.07;;
71048;SDS011;58704;53.358;-6.238;2023-10-09T10:10:39;8.45;;;6.90;;
71048;SDS011;58704;53.358;-6.238;2023-10-09T10:14:19;12.20;;;6.70;;
71048;SDS011;58704;53.358;-6.238;2023-10-09T10:16:16;8.25;;;6.38;;
71048;SDS011;58704;53.358;-6.238;2023-10-09T10:18:58;8.23;;;6.35;;
71048;SDS011;58704;53.358;-6.238;2023-10-09T10:21:25;9.37;;;7.83;;
71048;SDS011;58704;53.358;-6.238;2023-10-09T10:23:57;9.93;;;7.38;;
71048;SDS011;58704;53.358;-6.238;2023-10-09T10:26:31;11.20;;;8.35;;
71048;SDS011;58704;53.358;-6.238;2023-10-09T10:31:58;12.95;;;8.20;;
71048;SDS011;58704;53.358;-6.238;2023-10-09T10:37:11;11.63;;;7.40;;
71048;SDS011;58704;53.358;-6.238;2023-10-09T10:39:49;11.68;;;5.95;;
71048;SDS011;58704;53.358;-6.238;2023-10-09T10:42:15;6.45;;;5.43;;
71048;SDS011;58704;53.358;-6.238;2023-10-09T10:44:59;7.38;;;6.28;;
71048;SDS011;58704;53.358;-6.238;2023-10-09T10:47:28;8.37;;;6.67;;
71048;SDS011;58704;53.358;-6.238;2023-10-09T10:50:00;8.57;;;6.85;;
71048;SDS011;58704;53.358;-6.238;2023-10-09T10:52:49;15.65;;;9.43;;
71048;SDS011;58704;53.358;-6.238;2023-10-09T10:55:22;12.77;;;8.80;;
71048;SDS011;58704;53.358;-6.238;2023-10-09T10:58:16;12.95;;;8.55;;
71048;SDS011;58704;53.358;-6.238;2023-10-09T11:00:54;12.97;;;9.30;;
71048;SDS011;58704;53.358;-6.238;2023-10-09T11:03:23;20.70;;;9.05;;
71048;SDS011;58704;53.358;-6.238;2023-10-09T11:05:55;11.57;;;8.85;;
71048;SDS011;58704;53.358;-6.238;2023-10-09T11:08:30;10.95;;;8.73;;
71048;SDS011;58704;53.358;-6.238;2023-10-09T11:11:10;11.27;;;8.02;;
71048;SDS011;58704;53.358;-6.238;2023-10-09T11:13:40;12.33;;;8.50;;
71048;SDS011;58704;53.358;-6.238;2023-10-09T11:16:22;10.57;;;8.85;;
71048;SDS011;58704;53.358;-6.238;2023-10-09T11:19:07;11.60;;;8.07;;
71048;SDS011;58704;53.358;-6.238;2023-10-09T11:21:53;12.82;;;8.00;;
71048;SDS011;58704;53.358;-6.238;2023-10-09T11:24:31;10.95;;;8.27;;
71048;SDS011;58704;53.358;-6.238;2023-10-09T11:27:04;9.57;;;6.90;;
71048;SDS011;58704;53.358;-6.238;2023-10-09T11:29:30;12.07;;;7.82;;
71048;SDS011;58704;53.358;-6.238;2023-10-09T11:32:18;9.93;;;7.32;;
71048;SDS011;58704;53.358;-6.238;2023-10-09T11:34:48;9.23;;;6.93;;
71048;SDS011;58704;53.358;-6.238;2023-10-09T11:37:17;8.35;;;6.78;;
71048;SDS011;58704;53.358;-6.238;2023-10-09T11:39:58;9.33;;;6.00;;
71048;SDS011;58704;53.358;-6.238;2023-10-09T11:42:28;9.43;;;6.25;;
71048;SDS011;58704;53.358;-6.238;2023-10-09T11:45:20;8.57;;;6.03;;
71048;SDS011;58704;53.358;-6.238;2023-10-09T11:47:53;9.10;;;6.55;;
71048;SDS011;58704;53.358;-6.238;2023-10-09T11:50:38;11.98;;;7.18;;
71048;SDS011;58704;53.358;-6.238;2023-10-09T11:53:16;13.13;;;7.33;;
71048;SDS011;58704;53.358;-6.238;2023-10-09T11:55:44;11.75;;;7.00;;
71048;SDS011;58704;53.358;-6.238;2023-10-09T11:58:17;16.52;;;7.22;;
71048;SDS011;58704;53.358;-6.238;2023-10-09T12:00:55;11.77;;;6.38;;
71048;SDS011;58704;53.358;-6.238;2023-10-09T12:03:30;9.75;;;5.95;;
71048;SDS011;58704;53.358;-6.238;2023-10-09T12:05:57;8.17;;;5.70;;
71048;SDS011;58704;53.358;-6.238;2023-10-09T12:08:37;6.68;;;5.05;;
71048;SDS011;58704;53.358;-6.238;2023-10-09T12:11:05;8.07;;;5.35;;
71048;SDS011;58704;53.358;-6.238;2023-10-09T12:13:34;6.05;;;4.57;;
71048;SDS011;58704;53.358;-6.238;2023-10-09T12:16:00;6.27;;;4.97;;
71048;SDS011;58704;53.358;-6.238;2023-10-09T12:18:25;8.48;;;6.70;;
71048;SDS011;58704;53.358;-6.238;2023-10-09T12:20:51;8.20;;;6.63;;
71048;SDS011;58704;53.358;-6.238;2023-10-09T12:23:18;9.95;;;7.18;;
71048;SDS011;58704;53.358;-6.238;2023-10-09T12:25:44;10.37;;;7.90;;
71048;SDS011;58704;53.358;-6.238;2023-10-09T12:28:10;12.90;;;9.07;;
71048;SDS011;58704;53.358;-6.238;2023-10-09T12:30:37;11.40;;;8.73;;
71048;SDS011;58704;53.358;-6.238;2023-10-09T12:33:06;13.80;;;9.23;;
71048;SDS011;58704;53.358;-6.238;2023-10-09T12:35:36;13.25;;;9.23;;
71048;SDS011;58704;53.358;-6.238;2023-10-09T12:38:03;13.63;;;9.13;;
71048;SDS011;58704;53.358;-6.238;2023-10-09T12:40:33;16.17;;;8.75;;
71048;SDS011;58704;53.358;-6.238;2023-10-09T12:42:59;12.83;;;7.83;;
71048;SDS011;58704;53.358;-6.238;2023-10-09T12:45:25;9.40;;;7.15;;
71048;SDS011;58704;53.358;-6.238;2023-10-09T12:47:52;8.15;;;6.55;;
71048;SDS011;58704;53.358;-6.238;2023-10-09T12:50:18;6.57;;;5.57;;
71048;SDS011;58704;53.358;-6.238;2023-10-09T12:52:52;7.85;;;5.95;;
71048;SDS011;58704;53.358;-6.238;2023-10-09T12:55:21;7.90;;;5.82;;
71048;SDS011;58704;53.358;-6.238;2023-10-09T12:57:47;7.37;;;6.03;;
71048;SDS011;58704;53.358;-6.238;2023-10-09T13:00:13;7.68;;;6.43;;
71048;SDS011;58704;53.358;-6.238;2023-10-09T13:02:43;10.60;;;6.57;;
71048;SDS011;58704;53.358;-6.238;2023-10-09T13:05:09;7.43;;;6.32;;
71048;SDS011;58704;53.358;-6.238;2023-10-09T13:07:49;9.23;;;6.67;;
71048;SDS011;58704;53.358;-6.238;2023-10-09T13:10:15;8.32;;;7.40;;
71048;SDS011;58704;53.358;-6.238;2023-10-09T13:12:40;9.03;;;7.70;;
71048;SDS011;58704;53.358;-6.238;2023-10-09T13:15:09;10.80;;;8.13;;
71048;SDS011;58704;53.358;-6.238;2023-10-09T13:17:35;8.57;;;7.43;;
71048;SDS011;58704;53.358;-6.238;2023-10-09T13:20:02;10.43;;;8.50;;
71048;SDS011;58704;53.358;-6.238;2023-10-09T13:22:29;11.93;;;7.75;;
71048;SDS011;58704;53.358;-6.238;2023-10-09T13:24:55;7.95;;;6.82;;
71048;SDS011;58704;53.358;-6.238;2023-10-09T13:27:40;10.10;;;7.32;;
71048;SDS011;58704;53.358;-6.238;2023-10-09T13:30:18;11.17;;;8.13;;
71048;SDS011;58704;53.358;-6.238;2023-10-09T13:32:52;10.77;;;8.43;;
71048;SDS011;58704;53.358;-6.238;2023-10-09T13:35:17;9.97;;;8.53;;
71048;SDS011;58704;53.358;-6.238;2023-10-09T13:37:44;8.53;;;6.90;;
71048;SDS011;58704;53.358;-6.238;2023-10-09T13:40:19;8.95;;;6.50;;
71048;SDS011;58704;53.358;-6.238;2023-10-09T13:42:52;7.53;;;6.55;;
71048;SDS011;58704;53.358;-6.238;2023-10-09T13:45:18;10.48;;;6.25;;
71048;SDS011;58704;53.358;-6.238;2023-10-09T13:47:52;6.93;;;6.20;;
71048;SDS011;58704;53.358;-6.238;2023-10-09T13:50:19;6.78;;;6.05;;
71048;SDS011;58704;53.358;-6.238;2023-10-09T13:52:47;7.50;;;6.38;;
71048;SDS011;58704;53.358;-6.238;2023-10-09T13:55:13;9.10;;;7.38;;
71048;SDS011;58704;53.358;-6.238;2023-10-09T13:57:42;12.15;;;7.88;;
71048;SDS011;58704;53.358;-6.238;2023-10-09T14:00:13;14.03;;;9.10;;
71048;SDS011;58704;53.358;-6.238;2023-10-09T14:02:58;13.00;;;8.38;;
71048;SDS011;58704;53.358;-6.238;2023-10-09T14:05:27;13.25;;;9.40;;
71048;SDS011;58704;53.358;-6.238;2023-10-09T14:07:53;16.52;;;9.90;;
71048;SDS011;58704;53.358;-6.238;2023-10-09T14:10:22;12.20;;;8.52;;
71048;SDS011;58704;53.358;-6.238;2023-10-09T14:12:51;10.93;;;7.90;;
71048;SDS011;58704;53.358;-6.238;2023-10-09T14:15:19;12.05;;;8.57;;
71048;SDS011;58704;53.358;-6.238;2023-10-09T14:17:45;13.38;;;10.05;;
71048;SDS011;58704;53.358;-6.238;2023-10-09T14:20:11;10.90;;;9.18;;
71048;SDS011;58704;53.358;-6.238;2023-10-09T14:22:56;12.27;;;9.40;;
71048;SDS011;58704;53.358;-6.238;2023-10-09T14:25:31;14.45;;;9.25;;
71048;SDS011;58704;53.358;-6.238;2023-10-09T14:27:58;14.07;;;10.18;;
71048;SDS011;58704;53.358;-6.238;2023-10-09T14:30:24;11.07;;;9.03;;
71048;SDS011;58704;53.358;-6.238;2023-10-09T14:32:57;11.90;;;9.57;;
71048;SDS011;58704;53.358;-6.238;2023-10-09T14:35:23;12.35;;;9.60;;
71048;SDS011;58704;53.358;-6.238;2023-10-09T14:38:08;12.43;;;10.57;;
71048;SDS011;58704;53.358;-6.238;2023-10-09T14:40:44;15.75;;;10.63;;
71048;SDS011;58704;53.358;-6.238;2023-10-09T14:43:11;13.07;;;11.35;;
71048;SDS011;58704;53.358;-6.238;2023-10-09T14:45:46;12.90;;;10.27;;
71048;SDS011;58704;53.358;-6.238;2023-10-09T14:48:17;12.43;;;9.32;;
71048;SDS011;58704;53.358;-6.238;2023-10-09T14:50:53;11.20;;;9.38;;
71048;SDS011;58704;53.358;-6.238;2023-10-09T14:53:20;12.32;;;9.75;;
71048;SDS011;58704;53.358;-6.238;2023-10-09T14:55:55;14.73;;;11.20;;
71048;SDS011;58704;53.358;-6.238;2023-10-09T14:58:24;8.85;;;7.95;;
71048;SDS011;58704;53.358;-6.238;2023-10-09T15:00:53;9.57;;;6.88;;
71048;SDS011;58704;53.358;-6.238;2023-10-09T15:03:19;7.88;;;6.25;;
71048;SDS011;58704;53.358;-6.238;2023-10-09T15:05:45;6.40;;;5.63;;
71048;SDS011;58704;53.358;-6.238;2023-10-09T15:08:10;7.07;;;6.38;;
71048;SDS011;58704;53.358;-6.238;2023-10-09T15:10:43;6.73;;;5.80;;
71048;SDS011;58704;53.358;-6.238;2023-10-09T15:13:20;7.10;;;6.38;;
71048;SDS011;58704;53.358;-6.238;2023-10-09T15:15:53;25.48;;;6.90;;
71048;SDS011;58704;53.358;-6.238;2023-10-09T15:18:20;12.27;;;7.03;;
71048;SDS011;58704;53.358;-6.238;2023-10-09T15:20:50;9.38;;;6.63;;
71048;SDS011;58704;53.358;-6.238;2023-10-09T15:23:17;9.07;;;6.93;;
71048;SDS011;58704;53.358;-6.238;2023-10-09T15:25:45;7.63;;;6.78;;